Nantucket, MA

11:32 AM EST on February 06, 2016 (GMT -0500)
Surfside Wastewater Facility | | Change Station
CLOSE
Current Station
Personal Weather Station
Location: Nantucket, MA
Elevation: 16 ft
Nearby Weather Stations

Elev 16 ft 41.25 °N, 70.11 °W | Updated 37 seconds ago

Clear
Clear
31.9 °F
Feels Like 28 °F
N
4.0
Wind Variable Wind from West
Gusts 5.0 mph

Today
High -- | Low -- °F
--% Chance of Precip.
Yesterday
High -- | Low -- °F
Precip. -- in
Pressure 30.41 in
Visibility 10.0 miles
Clouds Clear
Windchill 28 °F
Dew Point 27 °F
Humidity 81%
Rainfall 0.00 in
Snow Depth Not available.
6:46 AM 5:02 PM
Waning Crescent, 5% visible
METAR KACK 061453Z 29007KT 10SM CLR 01/M05 A3041 RMK AO2 SLP297 T00061050 51015
Pressure 30.41 in
Visibility 10.0 miles
Clouds Clear
Windchill 28 °F
Dew Point 27 °F
Humidity 81%
Rainfall 0.00 in
Snow Depth Not available.
6:46 AM 5:02 PM
Waning Crescent, 5% visible
METAR KACK 061453Z 29007KT 10SM CLR 01/M05 A3041 RMK AO2 SLP297 T00061050 51015

10-Day Weather Forecast

Almanac

Astronomy

Feb. 06, 2016 Rise Set
Actual Time
Civil Twilight
Nautical Twilight
Astronomical Twilight
Moon
Length of Visible Light
Length of Day
Tomorrow will be .
, % of the Moon is Illuminated

Today's Extremes

State Highs State Lows

Community

WunderPhotos

Upload Photos

1,891,015 photos uploaded!

WunderBlog® & News

Nearby

Air Quality

  Air Quality AQ Index Pollutant
Not available.

Snow Depth

Station Depth Elevation

Earthquake Activity

City Distance Mag. Time & Date
Minimum magnitude displayed is 2.5.

Coastal Water Temperatures

Place Temperature

Stations

Nearby Weather Stations

Station Location Temp. Windchill Dew Point Humidity Wind Precip. Elev Updated Type
                   

Watches & Warnings

There are currently no watches in effect.